Swallowfield Close, Crewe weather

Latitude N 53° 04' 54" Longitude W 02° 27' 25" Elevation 52 m Grid Ref SJ69475393

This page shows a table of observations data for today using the Cumulus "recent history" webtags facility. It is experimental only. The table shows data observations at 10 minute intervals for the 8 hours prior to 19:50 on Monday 13 July i.e. the time this page was processed by Cumulus. Ideally in the long-term this will be replaced by a script to read data/realtimelog.txt for the current (or selectable) date and display all the observations for the applicable meteorological date (13/07/2020 in this case) starting at midnight (rollover time). This will fix the start of the observations table to a defined point.

The graph shows the same data but at 5-minute intervals.


Table of observations data (at 10-minute intervals) for Swallowfield Close, Crewe since 10:50 on 13/07/2020
Observations
Time Temp Wind Chill Dewpoint Pressure Wind Speed Wind Gust Wind Dir Humidity Rainfall
10:50 19.5 °C 19.5 °C 13.2 °C 1020.4 hPa 8.7 km/h 13.3 km/h 67 % 0.0 mm
11:00 20.4 °C 20.4 °C 13.8 °C 1020.2 hPa 8.6 km/h 12.2 km/h 66 % 0.0 mm
11:10 20.5 °C 20.5 °C 13.2 °C 1020.2 hPa 11.3 km/h 12.2 km/h 63 % 0.0 mm
11:20 20.2 °C 20.2 °C 13.2 °C 1020.0 hPa 10.6 km/h 17.3 km/h 64 % 0.0 mm
11:30 19.9 °C 19.9 °C 13.4 °C 1020.1 hPa 10.3 km/h 18.4 km/h 66 % 0.0 mm
11:40 19.5 °C 19.5 °C 13.2 °C 1020.0 hPa 13.4 km/h 23.4 km/h 67 % 0.0 mm
11:50 18.9 °C 18.9 °C 13.3 °C 1019.9 hPa 16.8 km/h 23.4 km/h 70 % 0.0 mm
12:00 19.3 °C 19.3 °C 13.9 °C 1019.8 hPa 11.6 km/h 15.8 km/h 71 % 0.0 mm
12:10 19.9 °C 19.9 °C 14.5 °C 1019.8 hPa 13.0 km/h 19.4 km/h 71 % 0.0 mm
12:20 19.8 °C 19.8 °C 14.4 °C 1019.7 hPa 11.8 km/h 19.4 km/h 71 % 0.0 mm
12:30 19.9 °C 19.9 °C 14.5 °C 1019.8 hPa 8.8 km/h 17.3 km/h 71 % 0.0 mm
12:40 20.3 °C 20.3 °C 14.7 °C 1019.6 hPa 11.0 km/h 15.8 km/h 70 % 0.0 mm
12:50 20.9 °C 20.9 °C 15.0 °C 1019.4 hPa 10.0 km/h 17.3 km/h 69 % 0.0 mm
13:00 21.1 °C 21.1 °C 14.5 °C 1019.2 hPa 11.0 km/h 17.3 km/h 66 % 0.0 mm
13:10 21.8 °C 21.8 °C 14.7 °C 1019.2 hPa 17.2 km/h 19.4 km/h 64 % 0.0 mm
13:20 21.8 °C 21.8 °C 14.7 °C 1019.0 hPa 12.7 km/h 22.0 km/h 64 % 0.0 mm
13:30 21.2 °C 21.2 °C 13.9 °C 1019.1 hPa 14.3 km/h 22.0 km/h 63 % 0.0 mm
13:40 20.7 °C 20.7 °C 14.1 °C 1018.9 hPa 12.1 km/h 17.3 km/h 66 % 0.0 mm
13:50 20.3 °C 20.3 °C 13.8 °C 1018.7 hPa 12.7 km/h 18.4 km/h 66 % 0.0 mm
14:00 20.3 °C 20.3 °C 14.0 °C 1018.6 hPa 13.7 km/h 19.4 km/h 67 % 0.0 mm
14:10 20.3 °C 20.3 °C 14.0 °C 1018.6 hPa 15.5 km/h 20.9 km/h 67 % 0.0 mm
14:20 20.4 °C 20.4 °C 14.3 °C 1018.3 hPa 14.0 km/h 19.4 km/h 68 % 0.0 mm
14:30 20.2 °C 20.2 °C 14.1 °C 1018.5 hPa 10.0 km/h 17.3 km/h 68 % 0.0 mm
14:40 20.0 °C 20.0 °C 13.9 °C 1018.2 hPa 10.4 km/h 17.3 km/h 68 % 0.0 mm
14:50 19.8 °C 19.8 °C 14.0 °C 1018.2 hPa 13.2 km/h 20.9 km/h 69 % 0.0 mm
15:00 19.8 °C 19.8 °C 14.2 °C 1018.2 hPa 8.1 km/h 15.8 km/h 70 % 0.0 mm
15:10 19.8 °C 19.8 °C 14.4 °C 1018.2 hPa 4.8 km/h 6.1 km/h 71 % 0.0 mm
15:20 19.5 °C 19.5 °C 14.5 °C 1018.2 hPa 7.8 km/h 13.3 km/h 73 % 0.0 mm
15:30 19.9 °C 19.9 °C 15.6 °C 1018.0 hPa 8.2 km/h 13.3 km/h 76 % 0.0 mm
15:40 20.3 °C 20.3 °C 15.1 °C 1018.0 hPa 9.9 km/h 15.8 km/h 72 % 0.0 mm
15:50 20.3 °C 20.3 °C 14.7 °C 1018.0 hPa 9.6 km/h 15.8 km/h 70 % 0.0 mm
16:00 20.1 °C 20.1 °C 14.5 °C 1017.9 hPa 8.1 km/h 15.8 km/h 70 % 0.0 mm
16:10 20.1 °C 20.1 °C 14.5 °C 1017.8 hPa 8.3 km/h 12.2 km/h 70 % 0.0 mm
16:20 20.2 °C 20.2 °C 14.6 °C 1017.8 hPa 8.4 km/h 11.2 km/h 70 % 0.0 mm
16:30 20.8 °C 20.8 °C 14.9 °C 1017.7 hPa 8.3 km/h 12.2 km/h 69 % 0.0 mm
16:40 21.1 °C 21.1 °C 14.7 °C 1017.7 hPa 7.7 km/h 12.2 km/h 67 % 0.0 mm
16:50 21.2 °C 21.2 °C 14.4 °C 1017.7 hPa 7.6 km/h 12.2 km/h 65 % 0.0 mm
17:00 21.0 °C 21.0 °C 13.7 °C 1017.5 hPa 9.7 km/h 13.3 km/h 63 % 0.0 mm
17:10 20.7 °C 20.7 °C 13.9 °C 1017.5 hPa 6.5 km/h 12.2 km/h 65 % 0.0 mm
17:20 20.7 °C 20.7 °C 13.9 °C 1017.6 hPa 7.8 km/h 12.2 km/h 65 % 0.0 mm
17:30 21.0 °C 21.0 °C 13.9 °C 1017.5 hPa 5.9 km/h 12.2 km/h 64 % 0.0 mm
17:40 19.9 °C 19.9 °C 14.5 °C 1017.4 hPa 5.4 km/h 9.7 km/h 71 % 0.0 mm
17:50 18.7 °C 18.7 °C 14.0 °C 1017.5 hPa 6.1 km/h 8.6 km/h 74 % 0.0 mm
18:00 18.1 °C 18.1 °C 14.0 °C 1017.4 hPa 7.1 km/h 11.2 km/h 77 % 0.0 mm
18:10 18.2 °C 18.2 °C 13.9 °C 1017.3 hPa 3.7 km/h 7.2 km/h 76 % 0.0 mm
18:20 18.1 °C 18.1 °C 13.6 °C 1017.3 hPa 5.7 km/h 8.6 km/h 75 % 0.0 mm
18:30 18.5 °C 18.5 °C 13.8 °C 1017.2 hPa 4.4 km/h 6.1 km/h 74 % 0.0 mm
18:40 19.1 °C 19.1 °C 13.5 °C 1017.2 hPa 6.0 km/h 12.2 km/h 70 % 0.0 mm
18:50 19.1 °C 19.1 °C 13.1 °C 1017.2 hPa 4.4 km/h 7.2 km/h 68 % 0.0 mm
19:00 18.8 °C 18.8 °C 13.2 °C 1017.1 hPa 3.5 km/h 6.1 km/h 70 % 0.0 mm
19:10 18.5 °C 18.5 °C 13.2 °C 1017.2 hPa 5.1 km/h 6.1 km/h 71 % 0.0 mm
19:20 18.2 °C 18.2 °C 13.1 °C 1017.1 hPa 3.6 km/h 6.1 km/h 72 % 0.0 mm
19:30 18.0 °C 18.0 °C 13.1 °C 1017.1 hPa 2.8 km/h 6.1 km/h 73 % 0.0 mm
19:40 17.9 °C 17.9 °C 12.8 °C 1017.1 hPa 4.1 km/h 5.0 km/h 72 % 0.0 mm
:now: :trends: :gauges: :today/yesterday: :observations:
:month/year: :monthly records: :all-time records: :annual data: :noaa reports: :seasonal averages:
:mobile: :forum: :webcam: :system:



Page updated 13/07/2020 19:50:26
powered by Cumulus v1.9.4 (1099)